Terminal Aerodrome Forecast
Issued by NWS Jackson, MS

Home | Current Version | Previous Version | Text Only | Print | Product List | Glossary On
Versions: 1 2 3 4 5 6 7 8 9 10 11 12 13
120
FTUS44 KJAN 211744
TAFGLH
TAF
KGLH 211744Z 2118/2218 24007KT 6SM BR VCSH BKN010 OVC025
     FM211900 27007KT P6SM VCSH BKN025 BKN050
     FM220000 32005KT P6SM VCSH BKN035 BKN060
     FM220700 35004KT 5SM BR BKN015 BKN090
     FM221000 36005KT 1SM BR BKN005=

USA.gov is the U.S. government's official web portal to all federal, state and local government web resources and services.